Terminal Aerodrome Forecast
Issued by NWS

Home | Current Version | Previous Version | Text Only | Print | Product List | Glossary Off
Versions: 1 2 3 4 5 6 7 8 9 10 11 12 13 14 15

000
FTUS45 KGGW 151120
TAFOLF
TAF
KOLF 151120Z 1512/1612 VRB03KT P6SM OVC020
     FM151600 09006KT P6SM BKN040
     FM151900 10008KT P6SM SCT090
     FM160400 08010KT P6SM BKN200 WS020/15035KT
     FM160900 08010KT P6SM BKN150=

USA.gov is the U.S. government's official web portal to all federal, state and local government web resources and services.